sensor_id;sensor_type;location;lat;lon;timestamp;P1;durP1;ratioP1;P2;durP2;ratioP2
78873;SDS011;68250;43.514;1.494;2023-12-29T00:05:00;18.42;;;10.13;;
78873;SDS011;68250;43.514;1.494;2023-12-29T00:07:25;18.43;;;9.77;;
78873;SDS011;68250;43.514;1.494;2023-12-29T00:09:51;17.53;;;9.03;;
78873;SDS011;68250;43.514;1.494;2023-12-29T00:12:16;18.23;;;9.68;;
78873;SDS011;68250;43.514;1.494;2023-12-29T00:14:50;20.50;;;10.80;;
78873;SDS011;68250;43.514;1.494;2023-12-29T00:17:15;20.73;;;10.95;;
78873;SDS011;68250;43.514;1.494;2023-12-29T00:19:41;19.30;;;10.73;;
78873;SDS011;68250;43.514;1.494;2023-12-29T00:22:06;19.13;;;11.07;;
78873;SDS011;68250;43.514;1.494;2023-12-29T00:24:32;17.83;;;9.77;;
78873;SDS011;68250;43.514;1.494;2023-12-29T00:26:57;17.10;;;10.37;;
78873;SDS011;68250;43.514;1.494;2023-12-29T00:29:24;17.70;;;9.98;;
78873;SDS011;68250;43.514;1.494;2023-12-29T00:31:49;17.20;;;9.60;;
78873;SDS011;68250;43.514;1.494;2023-12-29T00:34:15;14.90;;;8.77;;
78873;SDS011;68250;43.514;1.494;2023-12-29T00:36:40;16.67;;;8.30;;
78873;SDS011;68250;43.514;1.494;2023-12-29T00:39:06;17.70;;;8.27;;
78873;SDS011;68250;43.514;1.494;2023-12-29T00:41:31;19.23;;;9.33;;
78873;SDS011;68250;43.514;1.494;2023-12-29T00:43:57;15.85;;;8.57;;
78873;SDS011;68250;43.514;1.494;2023-12-29T00:46:23;18.07;;;8.37;;
78873;SDS011;68250;43.514;1.494;2023-12-29T00:48:48;14.50;;;8.10;;
78873;SDS011;68250;43.514;1.494;2023-12-29T00:51:14;13.97;;;8.00;;
78873;SDS011;68250;43.514;1.494;2023-12-29T00:53:39;14.13;;;8.23;;
78873;SDS011;68250;43.514;1.494;2023-12-29T00:56:11;13.50;;;8.20;;
78873;SDS011;68250;43.514;1.494;2023-12-29T00:58:37;16.53;;;8.20;;
78873;SDS011;68250;43.514;1.494;2023-12-29T01:01:03;16.83;;;8.50;;
78873;SDS011;68250;43.514;1.494;2023-12-29T01:03:28;17.23;;;8.68;;
78873;SDS011;68250;43.514;1.494;2023-12-29T01:05:54;17.60;;;8.50;;
78873;SDS011;68250;43.514;1.494;2023-12-29T01:08:19;17.57;;;8.27;;
78873;SDS011;68250;43.514;1.494;2023-12-29T01:10:45;16.37;;;8.43;;
78873;SDS011;68250;43.514;1.494;2023-12-29T01:13:10;12.73;;;8.20;;
78873;SDS011;68250;43.514;1.494;2023-12-29T01:15:36;14.77;;;8.17;;
78873;SDS011;68250;43.514;1.494;2023-12-29T01:18:02;15.15;;;8.70;;
78873;SDS011;68250;43.514;1.494;2023-12-29T01:20:27;15.40;;;8.25;;
78873;SDS011;68250;43.514;1.494;2023-12-29T01:22:53;15.60;;;8.97;;
78873;SDS011;68250;43.514;1.494;2023-12-29T01:25:18;16.83;;;8.98;;
78873;SDS011;68250;43.514;1.494;2023-12-29T01:27:44;17.20;;;9.37;;
78873;SDS011;68250;43.514;1.494;2023-12-29T01:30:09;16.97;;;9.10;;
78873;SDS011;68250;43.514;1.494;2023-12-29T01:32:35;16.63;;;8.30;;
78873;SDS011;68250;43.514;1.494;2023-12-29T01:35:01;17.07;;;8.80;;
78873;SDS011;68250;43.514;1.494;2023-12-29T01:37:27;16.40;;;9.55;;
78873;SDS011;68250;43.514;1.494;2023-12-29T01:39:52;21.60;;;11.70;;
78873;SDS011;68250;43.514;1.494;2023-12-29T01:42:18;19.87;;;12.40;;
78873;SDS011;68250;43.514;1.494;2023-12-29T01:44:43;15.88;;;10.43;;
78873;SDS011;68250;43.514;1.494;2023-12-29T01:47:14;21.20;;;12.13;;
78873;SDS011;68250;43.514;1.494;2023-12-29T01:49:44;25.63;;;13.43;;
78873;SDS011;68250;43.514;1.494;2023-12-29T01:52:10;21.35;;;13.45;;
78873;SDS011;68250;43.514;1.494;2023-12-29T01:54:36;24.17;;;14.18;;
78873;SDS011;68250;43.514;1.494;2023-12-29T01:57:05;17.37;;;9.50;;
78873;SDS011;68250;43.514;1.494;2023-12-29T01:59:33;18.33;;;9.25;;
78873;SDS011;68250;43.514;1.494;2023-12-29T02:01:59;15.25;;;8.60;;
78873;SDS011;68250;43.514;1.494;2023-12-29T02:04:26;16.63;;;8.75;;
78873;SDS011;68250;43.514;1.494;2023-12-29T02:06:52;16.92;;;9.40;;
78873;SDS011;68250;43.514;1.494;2023-12-29T02:09:18;17.37;;;9.10;;
78873;SDS011;68250;43.514;1.494;2023-12-29T02:11:44;17.55;;;9.20;;
78873;SDS011;68250;43.514;1.494;2023-12-29T02:14:10;16.77;;;9.20;;
78873;SDS011;68250;43.514;1.494;2023-12-29T02:19:45;17.45;;;10.07;;
78873;SDS011;68250;43.514;1.494;2023-12-29T02:22:14;20.83;;;10.52;;
78873;SDS011;68250;43.514;1.494;2023-12-29T02:24:43;19.13;;;9.45;;
78873;SDS011;68250;43.514;1.494;2023-12-29T02:29:45;16.65;;;9.15;;
78873;SDS011;68250;43.514;1.494;2023-12-29T02:32:24;51.80;;;18.35;;
78873;SDS011;68250;43.514;1.494;2023-12-29T02:34:52;59.10;;;20.33;;
78873;SDS011;68250;43.514;1.494;2023-12-29T02:37:18;37.03;;;15.70;;
78873;SDS011;68250;43.514;1.494;2023-12-29T02:39:44;36.03;;;15.25;;
78873;SDS011;68250;43.514;1.494;2023-12-29T02:42:10;30.10;;;13.25;;
78873;SDS011;68250;43.514;1.494;2023-12-29T02:44:35;25.53;;;12.27;;
78873;SDS011;68250;43.514;1.494;2023-12-29T02:47:01;22.20;;;11.03;;
78873;SDS011;68250;43.514;1.494;2023-12-29T02:49:29;18.73;;;10.70;;
78873;SDS011;68250;43.514;1.494;2023-12-29T02:51:54;19.97;;;10.70;;
78873;SDS011;68250;43.514;1.494;2023-12-29T02:54:20;19.65;;;10.57;;
78873;SDS011;68250;43.514;1.494;2023-12-29T02:56:45;21.47;;;10.70;;
78873;SDS011;68250;43.514;1.494;2023-12-29T02:59:11;21.27;;;11.43;;
78873;SDS011;68250;43.514;1.494;2023-12-29T03:01:36;18.27;;;10.50;;
78873;SDS011;68250;43.514;1.494;2023-12-29T03:04:02;18.88;;;10.70;;
78873;SDS011;68250;43.514;1.494;2023-12-29T03:06:27;19.43;;;11.40;;
78873;SDS011;68250;43.514;1.494;2023-12-29T03:08:53;22.23;;;11.50;;
78873;SDS011;68250;43.514;1.494;2023-12-29T03:11:18;22.77;;;12.07;;
78873;SDS011;68250;43.514;1.494;2023-12-29T03:13:44;22.67;;;11.90;;
78873;SDS011;68250;43.514;1.494;2023-12-29T03:16:10;22.73;;;12.30;;
78873;SDS011;68250;43.514;1.494;2023-12-29T03:18:35;23.93;;;12.60;;
78873;SDS011;68250;43.514;1.494;2023-12-29T03:21:05;20.45;;;12.32;;
78873;SDS011;68250;43.514;1.494;2023-12-29T03:23:31;23.13;;;12.65;;
78873;SDS011;68250;43.514;1.494;2023-12-29T03:25:56;23.57;;;12.87;;
78873;SDS011;68250;43.514;1.494;2023-12-29T03:28:22;20.60;;;11.50;;
78873;SDS011;68250;43.514;1.494;2023-12-29T03:30:47;21.23;;;11.70;;
78873;SDS011;68250;43.514;1.494;2023-12-29T03:33:13;21.75;;;12.02;;
78873;SDS011;68250;43.514;1.494;2023-12-29T03:35:39;22.80;;;12.07;;
78873;SDS011;68250;43.514;1.494;2023-12-29T03:38:04;20.13;;;10.18;;
78873;SDS011;68250;43.514;1.494;2023-12-29T03:40:30;17.80;;;10.20;;
78873;SDS011;68250;43.514;1.494;2023-12-29T03:42:55;16.97;;;10.60;;
78873;SDS011;68250;43.514;1.494;2023-12-29T03:45:21;18.55;;;10.65;;
78873;SDS011;68250;43.514;1.494;2023-12-29T03:47:46;21.77;;;10.73;;
78873;SDS011;68250;43.514;1.494;2023-12-29T03:50:12;20.53;;;10.37;;
78873;SDS011;68250;43.514;1.494;2023-12-29T03:52:37;17.65;;;9.80;;
78873;SDS011;68250;43.514;1.494;2023-12-29T03:55:04;21.52;;;11.02;;
78873;SDS011;68250;43.514;1.494;2023-12-29T03:57:30;20.02;;;11.85;;
78873;SDS011;68250;43.514;1.494;2023-12-29T03:59:55;19.40;;;10.07;;
78873;SDS011;68250;43.514;1.494;2023-12-29T04:02:21;20.87;;;11.00;;
78873;SDS011;68250;43.514;1.494;2023-12-29T04:04:46;18.90;;;10.80;;
78873;SDS011;68250;43.514;1.494;2023-12-29T04:07:12;16.95;;;10.00;;
78873;SDS011;68250;43.514;1.494;2023-12-29T04:09:37;19.55;;;10.07;;
78873;SDS011;68250;43.514;1.494;2023-12-29T04:12:03;18.97;;;10.63;;
78873;SDS011;68250;43.514;1.494;2023-12-29T04:14:28;21.50;;;10.70;;
78873;SDS011;68250;43.514;1.494;2023-12-29T04:16:54;18.33;;;10.70;;
78873;SDS011;68250;43.514;1.494;2023-12-29T04:19:19;19.23;;;11.13;;
78873;SDS011;68250;43.514;1.494;2023-12-29T04:21:45;20.65;;;11.40;;
78873;SDS011;68250;43.514;1.494;2023-12-29T04:24:10;21.83;;;11.13;;
78873;SDS011;68250;43.514;1.494;2023-12-29T04:26:36;19.80;;;10.87;;
78873;SDS011;68250;43.514;1.494;2023-12-29T04:29:02;20.30;;;11.45;;
78873;SDS011;68250;43.514;1.494;2023-12-29T04:31:28;21.90;;;10.55;;
78873;SDS011;68250;43.514;1.494;2023-12-29T04:33:53;18.47;;;10.53;;
78873;SDS011;68250;43.514;1.494;2023-12-29T04:36:19;19.23;;;11.23;;
78873;SDS011;68250;43.514;1.494;2023-12-29T04:38:45;18.88;;;10.90;;
78873;SDS011;68250;43.514;1.494;2023-12-29T04:41:13;19.77;;;10.77;;
78873;SDS011;68250;43.514;1.494;2023-12-29T04:43:39;22.42;;;10.93;;
78873;SDS011;68250;43.514;1.494;2023-12-29T04:46:05;18.13;;;10.67;;
78873;SDS011;68250;43.514;1.494;2023-12-29T04:48:30;18.08;;;11.07;;
78873;SDS011;68250;43.514;1.494;2023-12-29T04:50:56;19.80;;;11.20;;
78873;SDS011;68250;43.514;1.494;2023-12-29T04:53:21;19.67;;;10.47;;
78873;SDS011;68250;43.514;1.494;2023-12-29T04:55:47;20.60;;;10.43;;
78873;SDS011;68250;43.514;1.494;2023-12-29T04:58:13;17.23;;;10.18;;
78873;SDS011;68250;43.514;1.494;2023-12-29T05:00:38;17.90;;;9.90;;
78873;SDS011;68250;43.514;1.494;2023-12-29T05:03:04;20.07;;;9.87;;
78873;SDS011;68250;43.514;1.494;2023-12-29T05:05:47;20.80;;;10.32;;
78873;SDS011;68250;43.514;1.494;2023-12-29T05:08:13;19.73;;;10.40;;
78873;SDS011;68250;43.514;1.494;2023-12-29T05:10:38;19.70;;;10.40;;
78873;SDS011;68250;43.514;1.494;2023-12-29T05:13:04;20.87;;;10.73;;
78873;SDS011;68250;43.514;1.494;2023-12-29T05:15:30;19.52;;;10.52;;
78873;SDS011;68250;43.514;1.494;2023-12-29T05:17:55;19.10;;;10.53;;
78873;SDS011;68250;43.514;1.494;2023-12-29T05:20:21;16.63;;;10.20;;
78873;SDS011;68250;43.514;1.494;2023-12-29T05:22:46;22.27;;;10.52;;
78873;SDS011;68250;43.514;1.494;2023-12-29T05:25:12;18.87;;;10.57;;
78873;SDS011;68250;43.514;1.494;2023-12-29T05:27:37;20.03;;;10.30;;
78873;SDS011;68250;43.514;1.494;2023-12-29T05:30:03;19.13;;;10.13;;
78873;SDS011;68250;43.514;1.494;2023-12-29T05:32:29;17.83;;;9.35;;
78873;SDS011;68250;43.514;1.494;2023-12-29T05:34:54;21.10;;;11.07;;
78873;SDS011;68250;43.514;1.494;2023-12-29T05:37:20;21.43;;;11.03;;
78873;SDS011;68250;43.514;1.494;2023-12-29T05:39:45;33.83;;;15.53;;
78873;SDS011;68250;43.514;1.494;2023-12-29T05:42:11;28.50;;;12.93;;
78873;SDS011;68250;43.514;1.494;2023-12-29T05:44:37;20.80;;;11.13;;
78873;SDS011;68250;43.514;1.494;2023-12-29T05:47:03;27.70;;;14.27;;
78873;SDS011;68250;43.514;1.494;2023-12-29T05:49:29;24.27;;;11.93;;
78873;SDS011;68250;43.514;1.494;2023-12-29T05:51:55;22.50;;;11.60;;
78873;SDS011;68250;43.514;1.494;2023-12-29T05:54:20;24.70;;;12.60;;
78873;SDS011;68250;43.514;1.494;2023-12-29T05:56:46;17.65;;;10.00;;
78873;SDS011;68250;43.514;1.494;2023-12-29T05:59:11;18.38;;;10.18;;
78873;SDS011;68250;43.514;1.494;2023-12-29T06:01:37;22.83;;;10.87;;
78873;SDS011;68250;43.514;1.494;2023-12-29T06:04:03;18.65;;;9.98;;
78873;SDS011;68250;43.514;1.494;2023-12-29T06:06:28;18.05;;;9.00;;
78873;SDS011;68250;43.514;1.494;2023-12-29T06:08:54;18.23;;;10.13;;
78873;SDS011;68250;43.514;1.494;2023-12-29T06:11:19;19.95;;;12.07;;
78873;SDS011;68250;43.514;1.494;2023-12-29T06:13:46;20.93;;;10.77;;
78873;SDS011;68250;43.514;1.494;2023-12-29T06:16:18;16.13;;;9.75;;
78873;SDS011;68250;43.514;1.494;2023-12-29T06:18:44;16.70;;;9.60;;
78873;SDS011;68250;43.514;1.494;2023-12-29T06:21:10;18.00;;;9.77;;
78873;SDS011;68250;43.514;1.494;2023-12-29T06:23:36;18.58;;;9.90;;
78873;SDS011;68250;43.514;1.494;2023-12-29T06:26:01;15.23;;;9.13;;
78873;SDS011;68250;43.514;1.494;2023-12-29T06:28:27;18.90;;;10.70;;
78873;SDS011;68250;43.514;1.494;2023-12-29T06:30:53;18.77;;;9.95;;
78873;SDS011;68250;43.514;1.494;2023-12-29T06:33:19;20.60;;;11.13;;
78873;SDS011;68250;43.514;1.494;2023-12-29T06:35:47;18.73;;;10.17;;
78873;SDS011;68250;43.514;1.494;2023-12-29T06:38:13;19.35;;;9.07;;
78873;SDS011;68250;43.514;1.494;2023-12-29T06:40:39;18.00;;;9.52;;
78873;SDS011;68250;43.514;1.494;2023-12-29T06:43:05;15.63;;;9.07;;
78873;SDS011;68250;43.514;1.494;2023-12-29T06:45:30;14.67;;;8.67;;
78873;SDS011;68250;43.514;1.494;2023-12-29T06:47:56;14.80;;;9.00;;
78873;SDS011;68250;43.514;1.494;2023-12-29T06:50:22;15.23;;;8.90;;
78873;SDS011;68250;43.514;1.494;2023-12-29T06:52:47;16.95;;;8.80;;
78873;SDS011;68250;43.514;1.494;2023-12-29T06:55:13;14.60;;;8.40;;
78873;SDS011;68250;43.514;1.494;2023-12-29T06:57:39;17.10;;;8.47;;
78873;SDS011;68250;43.514;1.494;2023-12-29T07:00:04;17.75;;;9.18;;
78873;SDS011;68250;43.514;1.494;2023-12-29T07:02:31;14.37;;;9.13;;
78873;SDS011;68250;43.514;1.494;2023-12-29T07:04:56;15.18;;;7.80;;
78873;SDS011;68250;43.514;1.494;2023-12-29T07:07:22;16.20;;;8.20;;
78873;SDS011;68250;43.514;1.494;2023-12-29T07:09:47;15.43;;;8.35;;
78873;SDS011;68250;43.514;1.494;2023-12-29T07:12:13;15.87;;;9.20;;
78873;SDS011;68250;43.514;1.494;2023-12-29T07:14:40;16.17;;;9.40;;
78873;SDS011;68250;43.514;1.494;2023-12-29T07:17:06;16.43;;;9.33;;
78873;SDS011;68250;43.514;1.494;2023-12-29T07:19:32;17.02;;;9.88;;
78873;SDS011;68250;43.514;1.494;2023-12-29T07:22:02;18.08;;;10.63;;
78873;SDS011;68250;43.514;1.494;2023-12-29T07:24:30;20.27;;;11.20;;
78873;SDS011;68250;43.514;1.494;2023-12-29T07:26:56;23.55;;;11.60;;
78873;SDS011;68250;43.514;1.494;2023-12-29T07:29:21;19.53;;;12.20;;
78873;SDS011;68250;43.514;1.494;2023-12-29T07:31:47;24.25;;;13.63;;
78873;SDS011;68250;43.514;1.494;2023-12-29T07:34:13;25.33;;;14.07;;
78873;SDS011;68250;43.514;1.494;2023-12-29T07:36:39;22.88;;;12.98;;
78873;SDS011;68250;43.514;1.494;2023-12-29T07:39:04;22.50;;;11.83;;
78873;SDS011;68250;43.514;1.494;2023-12-29T07:41:30;20.58;;;11.15;;
78873;SDS011;68250;43.514;1.494;2023-12-29T07:43:55;23.40;;;13.90;;
78873;SDS011;68250;43.514;1.494;2023-12-29T07:46:24;23.02;;;13.27;;
78873;SDS011;68250;43.514;1.494;2023-12-29T07:48:51;19.65;;;11.70;;
78873;SDS011;68250;43.514;1.494;2023-12-29T07:51:17;18.83;;;10.63;;
78873;SDS011;68250;43.514;1.494;2023-12-29T07:53:43;15.98;;;10.45;;
78873;SDS011;68250;43.514;1.494;2023-12-29T07:56:12;18.60;;;11.23;;
78873;SDS011;68250;43.514;1.494;2023-12-29T07:58:37;23.80;;;12.45;;
78873;SDS011;68250;43.514;1.494;2023-12-29T08:01:03;23.10;;;12.57;;
78873;SDS011;68250;43.514;1.494;2023-12-29T08:03:29;22.85;;;12.95;;
78873;SDS011;68250;43.514;1.494;2023-12-29T08:05:54;23.23;;;13.13;;
78873;SDS011;68250;43.514;1.494;2023-12-29T08:08:20;22.40;;;12.88;;
78873;SDS011;68250;43.514;1.494;2023-12-29T08:10:45;22.13;;;12.63;;
78873;SDS011;68250;43.514;1.494;2023-12-29T08:13:11;22.73;;;13.80;;
78873;SDS011;68250;43.514;1.494;2023-12-29T08:15:36;24.38;;;13.77;;
78873;SDS011;68250;43.514;1.494;2023-12-29T08:18:02;23.60;;;13.30;;
78873;SDS011;68250;43.514;1.494;2023-12-29T08:20:29;26.15;;;13.85;;
78873;SDS011;68250;43.514;1.494;2023-12-29T08:22:55;23.67;;;13.03;;
78873;SDS011;68250;43.514;1.494;2023-12-29T08:25:22;24.02;;;13.68;;
78873;SDS011;68250;43.514;1.494;2023-12-29T08:27:47;22.50;;;13.30;;
78873;SDS011;68250;43.514;1.494;2023-12-29T08:30:13;25.77;;;13.13;;
78873;SDS011;68250;43.514;1.494;2023-12-29T08:32:39;24.27;;;14.02;;
78873;SDS011;68250;43.514;1.494;2023-12-29T08:35:04;24.67;;;13.57;;
78873;SDS011;68250;43.514;1.494;2023-12-29T08:37:31;25.63;;;13.52;;
78873;SDS011;68250;43.514;1.494;2023-12-29T08:39:58;21.88;;;13.18;;
78873;SDS011;68250;43.514;1.494;2023-12-29T08:42:24;22.50;;;14.10;;
78873;SDS011;68250;43.514;1.494;2023-12-29T08:44:50;25.13;;;14.10;;
78873;SDS011;68250;43.514;1.494;2023-12-29T08:47:15;24.97;;;13.20;;
78873;SDS011;68250;43.514;1.494;2023-12-29T08:49:41;23.77;;;13.27;;
78873;SDS011;68250;43.514;1.494;2023-12-29T08:52:07;23.35;;;13.77;;
78873;SDS011;68250;43.514;1.494;2023-12-29T08:54:34;22.90;;;13.57;;
78873;SDS011;68250;43.514;1.494;2023-12-29T08:56:59;23.97;;;14.13;;
78873;SDS011;68250;43.514;1.494;2023-12-29T08:59:25;29.17;;;16.08;;
78873;SDS011;68250;43.514;1.494;2023-12-29T09:01:50;25.17;;;14.93;;
78873;SDS011;68250;43.514;1.494;2023-12-29T09:04:16;22.73;;;14.03;;
78873;SDS011;68250;43.514;1.494;2023-12-29T09:06:42;26.23;;;14.85;;
78873;SDS011;68250;43.514;1.494;2023-12-29T09:09:07;24.93;;;15.23;;
78873;SDS011;68250;43.514;1.494;2023-12-29T09:11:37;27.00;;;15.40;;
78873;SDS011;68250;43.514;1.494;2023-12-29T09:14:03;28.70;;;15.37;;
78873;SDS011;68250;43.514;1.494;2023-12-29T09:16:29;30.73;;;16.52;;
78873;SDS011;68250;43.514;1.494;2023-12-29T09:18:54;23.53;;;14.67;;
78873;SDS011;68250;43.514;1.494;2023-12-29T09:21:20;27.40;;;14.70;;
78873;SDS011;68250;43.514;1.494;2023-12-29T09:23:45;25.63;;;14.10;;
78873;SDS011;68250;43.514;1.494;2023-12-29T09:26:12;24.10;;;14.27;;
78873;SDS011;68250;43.514;1.494;2023-12-29T09:28:38;24.73;;;14.10;;
78873;SDS011;68250;43.514;1.494;2023-12-29T09:31:07;23.58;;;14.40;;
78873;SDS011;68250;43.514;1.494;2023-12-29T09:33:33;25.17;;;14.00;;
78873;SDS011;68250;43.514;1.494;2023-12-29T09:35:58;25.07;;;14.17;;
78873;SDS011;68250;43.514;1.494;2023-12-29T09:38:24;23.33;;;13.73;;
78873;SDS011;68250;43.514;1.494;2023-12-29T09:40:50;21.87;;;13.30;;
78873;SDS011;68250;43.514;1.494;2023-12-29T09:43:17;22.10;;;13.05;;
78873;SDS011;68250;43.514;1.494;2023-12-29T09:45:43;24.47;;;13.53;;
78873;SDS011;68250;43.514;1.494;2023-12-29T09:48:10;23.40;;;13.80;;
78873;SDS011;68250;43.514;1.494;2023-12-29T09:50:37;21.88;;;12.40;;
78873;SDS011;68250;43.514;1.494;2023-12-29T09:53:02;19.77;;;12.37;;
78873;SDS011;68250;43.514;1.494;2023-12-29T09:55:29;19.45;;;12.07;;
78873;SDS011;68250;43.514;1.494;2023-12-29T09:57:54;19.60;;;11.68;;
78873;SDS011;68250;43.514;1.494;2023-12-29T10:00:20;21.13;;;11.50;;
78873;SDS011;68250;43.514;1.494;2023-12-29T10:02:46;18.67;;;11.63;;
78873;SDS011;68250;43.514;1.494;2023-12-29T10:05:12;20.63;;;10.82;;
78873;SDS011;68250;43.514;1.494;2023-12-29T10:07:38;19.90;;;11.13;;
78873;SDS011;68250;43.514;1.494;2023-12-29T10:10:05;21.02;;;11.43;;
78873;SDS011;68250;43.514;1.494;2023-12-29T10:12:35;19.83;;;11.00;;
78873;SDS011;68250;43.514;1.494;2023-12-29T10:23:05;19.98;;;10.88;;
78873;SDS011;68250;43.514;1.494;2023-12-29T10:25:34;19.10;;;10.90;;
78873;SDS011;68250;43.514;1.494;2023-12-29T10:28:00;20.08;;;11.35;;
78873;SDS011;68250;43.514;1.494;2023-12-29T10:30:25;21.88;;;12.93;;
78873;SDS011;68250;43.514;1.494;2023-12-29T10:32:52;20.15;;;11.80;;
78873;SDS011;68250;43.514;1.494;2023-12-29T10:35:17;21.02;;;11.23;;
78873;SDS011;68250;43.514;1.494;2023-12-29T10:37:44;21.23;;;10.43;;
78873;SDS011;68250;43.514;1.494;2023-12-29T10:40:11;20.23;;;10.87;;
78873;SDS011;68250;43.514;1.494;2023-12-29T10:42:52;16.88;;;10.45;;
78873;SDS011;68250;43.514;1.494;2023-12-29T10:45:18;16.17;;;9.95;;
78873;SDS011;68250;43.514;1.494;2023-12-29T10:47:44;18.67;;;9.93;;
78873;SDS011;68250;43.514;1.494;2023-12-29T10:50:09;17.25;;;10.35;;
78873;SDS011;68250;43.514;1.494;2023-12-29T10:52:35;19.83;;;10.00;;
78873;SDS011;68250;43.514;1.494;2023-12-29T10:57:31;16.30;;;10.32;;
78873;SDS011;68250;43.514;1.494;2023-12-29T10:59:58;18.07;;;10.50;;
78873;SDS011;68250;43.514;1.494;2023-12-29T11:02:25;16.42;;;10.38;;
78873;SDS011;68250;43.514;1.494;2023-12-29T11:04:55;18.38;;;10.07;;
78873;SDS011;68250;43.514;1.494;2023-12-29T11:07:45;16.60;;;9.98;;
78873;SDS011;68250;43.514;1.494;2023-12-29T11:10:11;22.88;;;12.57;;
78873;SDS011;68250;43.514;1.494;2023-12-29T11:12:37;21.33;;;12.43;;
78873;SDS011;68250;43.514;1.494;2023-12-29T11:15:06;23.27;;;11.88;;
78873;SDS011;68250;43.514;1.494;2023-12-29T11:17:34;21.00;;;11.73;;
78873;SDS011;68250;43.514;1.494;2023-12-29T11:20:01;19.43;;;11.47;;
78873;SDS011;68250;43.514;1.494;2023-12-29T11:22:28;21.70;;;10.90;;
78873;SDS011;68250;43.514;1.494;2023-12-29T11:24:55;19.95;;;11.05;;
78873;SDS011;68250;43.514;1.494;2023-12-29T11:27:24;16.92;;;10.32;;
78873;SDS011;68250;43.514;1.494;2023-12-29T11:29:52;21.85;;;11.13;;
78873;SDS011;68250;43.514;1.494;2023-12-29T11:32:20;17.20;;;10.33;;
78873;SDS011;68250;43.514;1.494;2023-12-29T11:34:54;17.63;;;10.68;;
78873;SDS011;68250;43.514;1.494;2023-12-29T11:37:27;18.75;;;10.82;;
78873;SDS011;68250;43.514;1.494;2023-12-29T11:42:56;18.23;;;10.05;;
78873;SDS011;68250;43.514;1.494;2023-12-29T11:45:28;17.30;;;10.32;;
78873;SDS011;68250;43.514;1.494;2023-12-29T11:47:56;17.00;;;10.45;;
78873;SDS011;68250;43.514;1.494;2023-12-29T11:50:35;17.02;;;11.00;;
78873;SDS011;68250;43.514;1.494;2023-12-29T11:53:02;18.63;;;9.65;;
78873;SDS011;68250;43.514;1.494;2023-12-29T11:55:29;16.45;;;8.60;;
78873;SDS011;68250;43.514;1.494;2023-12-29T11:57:56;15.43;;;9.40;;
78873;SDS011;68250;43.514;1.494;2023-12-29T12:03:17;18.00;;;9.23;;
78873;SDS011;68250;43.514;1.494;2023-12-29T12:05:49;13.60;;;8.60;;
78873;SDS011;68250;43.514;1.494;2023-12-29T12:08:34;14.73;;;8.60;;
78873;SDS011;68250;43.514;1.494;2023-12-29T12:13:53;16.35;;;8.82;;
78873;SDS011;68250;43.514;1.494;2023-12-29T12:19:10;14.07;;;8.60;;
78873;SDS011;68250;43.514;1.494;2023-12-29T12:21:36;15.90;;;9.40;;
78873;SDS011;68250;43.514;1.494;2023-12-29T12:24:05;15.00;;;8.85;;
78873;SDS011;68250;43.514;1.494;2023-12-29T12:26:32;16.35;;;9.00;;
78873;SDS011;68250;43.514;1.494;2023-12-29T12:28:57;13.93;;;9.40;;
78873;SDS011;68250;43.514;1.494;2023-12-29T12:31:23;13.88;;;7.55;;
78873;SDS011;68250;43.514;1.494;2023-12-29T12:33:59;15.10;;;8.25;;
78873;SDS011;68250;43.514;1.494;2023-12-29T12:36:29;14.00;;;7.53;;
78873;SDS011;68250;43.514;1.494;2023-12-29T12:38:56;13.35;;;8.00;;
78873;SDS011;68250;43.514;1.494;2023-12-29T12:41:22;14.57;;;7.93;;
78873;SDS011;68250;43.514;1.494;2023-12-29T12:44:03;14.48;;;8.27;;
78873;SDS011;68250;43.514;1.494;2023-12-29T12:46:39;11.90;;;7.65;;
78873;SDS011;68250;43.514;1.494;2023-12-29T12:49:06;13.98;;;7.80;;
78873;SDS011;68250;43.514;1.494;2023-12-29T12:51:32;13.87;;;7.97;;
78873;SDS011;68250;43.514;1.494;2023-12-29T12:53:58;15.23;;;9.10;;
78873;SDS011;68250;43.514;1.494;2023-12-29T12:56:24;12.90;;;7.80;;
78873;SDS011;68250;43.514;1.494;2023-12-29T12:58:56;14.02;;;7.93;;
78873;SDS011;68250;43.514;1.494;2023-12-29T13:01:22;13.27;;;7.50;;
78873;SDS011;68250;43.514;1.494;2023-12-29T13:03:49;12.07;;;7.00;;
78873;SDS011;68250;43.514;1.494;2023-12-29T13:06:14;13.15;;;7.70;;
78873;SDS011;68250;43.514;1.494;2023-12-29T13:08:42;12.40;;;7.53;;
78873;SDS011;68250;43.514;1.494;2023-12-29T13:11:07;11.95;;;7.35;;
78873;SDS011;68250;43.514;1.494;2023-12-29T13:13:39;12.00;;;6.80;;
78873;SDS011;68250;43.514;1.494;2023-12-29T13:16:06;13.18;;;6.93;;
78873;SDS011;68250;43.514;1.494;2023-12-29T13:18:32;13.30;;;7.35;;
78873;SDS011;68250;43.514;1.494;2023-12-29T13:20:57;12.47;;;7.00;;
78873;SDS011;68250;43.514;1.494;2023-12-29T13:23:27;12.90;;;7.07;;
78873;SDS011;68250;43.514;1.494;2023-12-29T13:26:04;12.45;;;7.50;;
78873;SDS011;68250;43.514;1.494;2023-12-29T13:28:31;13.45;;;7.40;;
78873;SDS011;68250;43.514;1.494;2023-12-29T13:30:57;13.40;;;8.17;;
78873;SDS011;68250;43.514;1.494;2023-12-29T13:33:34;13.15;;;7.43;;
78873;SDS011;68250;43.514;1.494;2023-12-29T13:36:11;13.38;;;7.72;;
78873;SDS011;68250;43.514;1.494;2023-12-29T13:38:59;14.82;;;7.53;;
78873;SDS011;68250;43.514;1.494;2023-12-29T13:41:35;13.43;;;7.57;;
78873;SDS011;68250;43.514;1.494;2023-12-29T13:44:00;13.65;;;7.18;;
78873;SDS011;68250;43.514;1.494;2023-12-29T13:46:26;14.00;;;7.10;;
78873;SDS011;68250;43.514;1.494;2023-12-29T13:48:52;12.73;;;7.43;;
78873;SDS011;68250;43.514;1.494;2023-12-29T13:51:22;13.43;;;7.32;;
78873;SDS011;68250;43.514;1.494;2023-12-29T13:53:49;12.40;;;6.90;;
78873;SDS011;68250;43.514;1.494;2023-12-29T13:56:14;12.07;;;6.97;;
78873;SDS011;68250;43.514;1.494;2023-12-29T13:58:40;12.87;;;7.00;;
78873;SDS011;68250;43.514;1.494;2023-12-29T14:01:08;11.02;;;6.90;;
78873;SDS011;68250;43.514;1.494;2023-12-29T14:06:42;12.95;;;6.70;;
78873;SDS011;68250;43.514;1.494;2023-12-29T14:09:14;11.88;;;6.47;;
78873;SDS011;68250;43.514;1.494;2023-12-29T14:11:46;12.20;;;6.47;;
78873;SDS011;68250;43.514;1.494;2023-12-29T14:14:12;12.55;;;7.10;;
78873;SDS011;68250;43.514;1.494;2023-12-29T14:16:38;13.63;;;6.83;;
78873;SDS011;68250;43.514;1.494;2023-12-29T14:19:06;12.68;;;6.68;;
78873;SDS011;68250;43.514;1.494;2023-12-29T14:21:32;11.47;;;6.47;;
78873;SDS011;68250;43.514;1.494;2023-12-29T14:26:40;11.32;;;6.60;;
78873;SDS011;68250;43.514;1.494;2023-12-29T14:29:09;11.37;;;6.43;;
78873;SDS011;68250;43.514;1.494;2023-12-29T14:31:36;10.88;;;6.80;;
78873;SDS011;68250;43.514;1.494;2023-12-29T14:34:03;11.60;;;6.72;;
78873;SDS011;68250;43.514;1.494;2023-12-29T14:36:30;11.15;;;6.60;;
78873;SDS011;68250;43.514;1.494;2023-12-29T14:38:56;14.10;;;7.03;;
78873;SDS011;68250;43.514;1.494;2023-12-29T14:41:22;12.90;;;7.20;;
78873;SDS011;68250;43.514;1.494;2023-12-29T14:43:47;12.00;;;6.77;;
78873;SDS011;68250;43.514;1.494;2023-12-29T14:46:13;10.82;;;7.15;;
78873;SDS011;68250;43.514;1.494;2023-12-29T14:48:38;13.00;;;7.50;;
78873;SDS011;68250;43.514;1.494;2023-12-29T14:51:04;11.93;;;6.87;;
78873;SDS011;68250;43.514;1.494;2023-12-29T14:53:30;12.10;;;7.20;;
78873;SDS011;68250;43.514;1.494;2023-12-29T14:55:55;13.37;;;6.73;;
78873;SDS011;68250;43.514;1.494;2023-12-29T14:58:21;13.00;;;7.25;;
78873;SDS011;68250;43.514;1.494;2023-12-29T15:00:46;13.37;;;7.27;;